Time;durP1;ratioP1;P1;durP2;ratioP2;P2;SDS_P1;SDS_P2;PMS_P1;PMS_P2;Temp;Humidity;BMP_temperature;BMP_pressure;BME280_temperature;BME280_humidity;BME280_pressure;Samples;Min_cycle;Max_cycle;Signal;HPM_P1;HPM_P2
2023/12/18 00:33:29;;;;;;;;;;;;;;;12.50;85.89;101390.70;106303;1257;61280;-86
2023/12/18 00:36:09;;;;;;;;;;;;;;;12.59;85.23;101392.27;106187;1254;61335;-87
2023/12/18 00:38:50;;;;;;;;;;;;;;;12.56;85.21;101393.80;106294;1256;74962;-85
2023/12/18 00:41:29;;;;;;;;;;;;;;;12.43;86.21;101382.77;106103;1256;68955;-85
2023/12/18 00:44:03;;;;;;;;;;;;;;;12.32;87.12;101374.14;106219;1256;72684;-85
2023/12/18 00:46:43;;;;;;;;;;;;;;;12.38;86.45;101359.91;106423;1253;61384;-85
2023/12/18 00:49:23;;;;;;;;;;;;;;;12.39;86.25;101346.04;106174;1254;61299;-85
2023/12/18 00:52:03;;;;;;;;;;;;;;;12.27;86.83;101360.19;106137;1253;74730;-85
2023/12/18 00:54:30;;;;;;;;;;;;;;;12.20;87.37;101367.06;106225;1259;67235;-85
2023/12/18 00:57:10;;;;;;;;;;;;;;;12.19;87.46;101355.05;106272;1253;72703;-86
2023/12/18 00:59:50;;;;;;;;;;;;;;;12.12;88.00;101354.00;106219;1253;61991;-85
2023/12/18 01:02:29;;;;;;;;;;;;;;;12.09;88.17;101357.16;106436;1254;61244;-86
2023/12/18 01:04:57;;;;;;;;;;;;;;;11.95;89.67;101360.98;106424;1253;73470;-86
2023/12/18 01:07:32;;;;;;;;;;;;;;;11.86;89.74;101365.13;106211;1253;68547;-86
2023/12/18 01:10:06;;;;;;;;;;;;;;;11.67;91.62;101363.44;106288;1254;71750;-85
2023/12/18 01:12:40;;;;;;;;;;;;;;;11.58;92.66;101367.15;106143;1258;61226;-86
2023/12/18 01:15:08;;;;;;;;;;;;;;;11.73;91.47;101360.89;106279;1258;61312;-86
2023/12/18 01:17:41;;;;;;;;;;;;;;;11.88;90.11;101347.96;106321;1258;74638;-86
2023/12/18 01:20:22;;;;;;;;;;;;;;;11.84;90.14;101339.66;106297;1254;68521;-85
2023/12/18 01:22:55;;;;;;;;;;;;;;;11.85;89.85;101334.58;106134;1255;72638;-85
2023/12/18 01:25:37;;;;;;;;;;;;;;;11.95;89.24;101338.41;106226;1259;61259;-86
2023/12/18 01:28:11;;;;;;;;;;;;;;;11.89;89.42;101345.40;106371;1253;61248;-85
2023/12/18 01:30:44;;;;;;;;;;;;;;;11.87;89.46;101337.18;106179;1255;74666;-85
2023/12/18 01:33:18;;;;;;;;;;;;;;;11.87;89.49;101330.75;106212;1253;68324;-86
2023/12/18 01:35:46;;;;;;;;;;;;;;;11.85;89.46;101333.80;106409;1253;71660;-86
2023/12/18 01:38:20;;;;;;;;;;;;;;;11.69;90.53;101334.14;106603;1254;61841;-86
2023/12/18 01:40:53;;;;;;;;;;;;;;;11.63;91.03;101332.20;106327;1253;61308;-87
2023/12/18 01:43:31;;;;;;;;;;;;;;;11.52;91.88;101325.19;106310;1254;74928;-86
2023/12/18 01:46:04;;;;;;;;;;;;;;;11.48;92.05;101331.95;106184;1254;68334;-87
2023/12/18 01:48:38;;;;;;;;;;;;;;;11.46;92.10;101337.95;106249;1254;72684;-86
2023/12/18 01:51:18;;;;;;;;;;;;;;;11.48;91.98;101328.44;106321;1254;61235;-85
2023/12/18 01:53:57;;;;;;;;;;;;;;;11.42;92.51;101310.39;106289;1253;61276;-86
2023/12/18 01:56:36;;;;;;;;;;;;;;;11.40;92.79;101298.02;106435;1258;74594;-85
2023/12/18 01:59:16;;;;;;;;;;;;;;;11.44;92.79;101291.47;106227;1253;67632;-86
2023/12/18 02:01:56;;;;;;;;;;;;;;;11.48;92.64;101294.73;106146;1258;72699;-85
2023/12/18 02:04:29;;;;;;;;;;;;;;;11.51;92.46;101290.20;106022;1254;61337;-85
2023/12/18 02:07:06;;;;;;;;;;;;;;;11.61;91.95;101290.41;106378;1253;61302;-85
2023/12/18 02:09:47;;;;;;;;;;;;;;;11.67;91.39;101281.95;106367;1253;74652;-86
2023/12/18 02:12:26;;;;;;;;;;;;;;;11.59;91.97;101275.02;106336;1253;67433;-86
2023/12/18 02:14:56;;;;;;;;;;;;;;;11.55;92.51;101279.70;106173;1256;71415;-86
2023/12/18 02:17:36;;;;;;;;;;;;;;;11.57;92.54;101285.63;106132;1254;61251;-86
2023/12/18 02:20:12;;;;;;;;;;;;;;;11.62;92.31;101290.14;106114;1253;61258;-86
2023/12/18 02:22:47;;;;;;;;;;;;;;;11.59;92.25;101290.20;106207;1255;74752;-85
2023/12/18 02:25:21;;;;;;;;;;;;;;;11.57;92.68;101300.02;106186;1253;68683;-86
2023/12/18 02:27:59;;;;;;;;;;;;;;;11.63;92.30;101307.05;106293;1258;71123;-86
2023/12/18 02:30:33;;;;;;;;;;;;;;;11.67;92.00;101308.67;106157;1253;61986;-85
2023/12/18 02:33:00;;;;;;;;;;;;;;;11.68;91.86;101309.17;106192;1253;61424;-85
2023/12/18 02:35:31;;;;;;;;;;;;;;;11.65;92.06;101305.43;106255;1258;74937;-86
2023/12/18 02:38:10;;;;;;;;;;;;;;;11.70;91.79;101307.98;106288;1258;67107;-86
2023/12/18 02:40:44;;;;;;;;;;;;;;;11.57;92.69;101301.28;106434;1253;72668;-87
2023/12/18 02:43:12;;;;;;;;;;;;;;;11.53;93.61;101294.20;106211;1253;61335;-86
2023/12/18 02:45:39;;;;;;;;;;;;;;;11.61;92.82;101298.66;106268;1253;61279;-86
2023/12/18 02:48:17;;;;;;;;;;;;;;;11.73;92.00;101298.31;106220;1253;74936;-86
2023/12/18 02:50:57;;;;;;;;;;;;;;;11.87;91.06;101290.13;106401;1253;66450;-86
2023/12/18 02:53:24;;;;;;;;;;;;;;;11.89;90.89;101284.70;106390;1257;71174;-86
2023/12/18 02:55:58;;;;;;;;;;;;;;;12.00;89.96;101277.91;106278;1255;61345;-86
2023/12/18 02:58:26;;;;;;;;;;;;;;;12.11;89.00;101256.84;106131;1253;61258;-86
2023/12/18 03:00:53;;;;;;;;;;;;;;;12.25;87.53;101250.14;106302;1256;74612;-85
2023/12/18 03:03:21;;;;;;;;;;;;;;;12.18;88.00;101248.05;106248;1254;68676;-87
2023/12/18 03:05:56;;;;;;;;;;;;;;;11.82;90.55;101232.64;106309;1253;72655;-85
2023/12/18 03:08:35;;;;;;;;;;;;;;;11.71;92.27;101237.61;106429;1253;61563;-85
2023/12/18 03:11:03;;;;;;;;;;;;;;;11.76;92.16;101250.01;106341;1254;61243;-86
2023/12/18 03:13:37;;;;;;;;;;;;;;;11.82;91.67;101242.65;106370;1256;74683;-87
2023/12/18 03:16:11;;;;;;;;;;;;;;;11.86;91.27;101236.98;106138;1256;67411;-86
2023/12/18 03:18:44;;;;;;;;;;;;;;;11.89;90.66;101237.81;106240;1253;72698;-88
2023/12/18 03:21:18;;;;;;;;;;;;;;;11.82;91.15;101248.67;106170;1254;61283;-87
2023/12/18 03:23:52;;;;;;;;;;;;;;;11.85;91.24;101256.81;106268;1253;61330;-87
2023/12/18 03:26:31;;;;;;;;;;;;;;;11.90;91.00;101267.73;106193;1253;73354;-88
2023/12/18 03:29:05;;;;;;;;;;;;;;;11.93;90.79;101274.11;106311;1256;67152;-87
2023/12/18 03:31:33;;;;;;;;;;;;;;;11.95;90.83;101277.58;106126;1253;73035;-86
2023/12/18 03:34:07;;;;;;;;;;;;;;;12.02;89.88;101279.39;106175;1256;61312;-88
2023/12/18 03:36:46;;;;;;;;;;;;;;;12.05;89.72;101284.71;106136;1259;61191;-87
2023/12/18 03:39:20;;;;;;;;;;;;;;;11.93;90.43;101276.90;106680;1256;74829;-86
2023/12/18 03:42:00;;;;;;;;;;;;;;;11.70;93.08;101262.48;106596;1257;66777;-87
2023/12/18 03:44:42;;;;;;;;;;;;;;;11.76;93.29;101254.06;106160;1254;72758;-88
2023/12/18 03:47:22;;;;;;;;;;;;;;;11.91;92.18;101256.39;106431;1254;61806;-87
2023/12/18 03:49:49;;;;;;;;;;;;;;;11.83;92.75;101257.34;106181;1258;61132;-87
2023/12/18 03:52:29;;;;;;;;;;;;;;;11.83;92.89;101256.08;106243;1255;75106;-88
2023/12/18 03:55:09;;;;;;;;;;;;;;;11.98;91.96;101263.16;106189;1257;66919;-87
2023/12/18 03:57:48;;;;;;;;;;;;;;;11.96;91.89;101261.73;106351;1253;71416;-87
2023/12/18 04:00:16;;;;;;;;;;;;;;;11.87;92.94;101267.71;106237;1258;61294;-87
2023/12/18 04:02:53;;;;;;;;;;;;;;;11.91;92.55;101276.83;106206;1253;61731;-87
2023/12/18 04:05:27;;;;;;;;;;;;;;;11.96;92.00;101274.94;106235;1256;74744;-86
2023/12/18 04:08:00;;;;;;;;;;;;;;;11.77;93.35;101269.63;106351;1258;67311;-87
2023/12/18 04:10:34;;;;;;;;;;;;;;;11.79;93.63;101263.89;106375;1254;73144;-86
2023/12/18 04:13:08;;;;;;;;;;;;;;;11.85;93.16;101266.82;106346;1253;61333;-87
2023/12/18 04:15:42;;;;;;;;;;;;;;;11.93;92.66;101264.52;106342;1253;61280;-86
2023/12/18 04:18:15;;;;;;;;;;;;;;;11.96;92.31;101255.21;106255;1256;74584;-86
2023/12/18 04:20:49;;;;;;;;;;;;;;;11.78;93.52;101253.48;106179;1253;68619;-87
2023/12/18 04:23:23;;;;;;;;;;;;;;;11.72;94.26;101252.20;106185;1256;72655;-87
2023/12/18 04:25:56;;;;;;;;;;;;;;;11.65;95.12;101248.65;106178;1256;61331;-87
2023/12/18 04:28:30;;;;;;;;;;;;;;;11.58;95.77;101241.23;106356;1255;61262;-86
2023/12/18 04:31:04;;;;;;;;;;;;;;;11.60;95.80;101248.14;106092;1258;74668;-87
2023/12/18 16:33:58;;;;;;;;;;;;;;;13.35;86.94;101281.77;106396;1253;69972;-87
2023/12/18 16:36:38;;;;;;;;;;;;;;;13.25;87.45;101283.09;106265;1253;73651;-87
2023/12/18 16:39:12;;;;;;;;;;;;;;;13.12;88.57;101285.17;106085;1253;61652;-88
2023/12/18 16:41:50;;;;;;;;;;;;;;;13.06;89.34;101287.87;106233;1253;62027;-86
2023/12/18 16:44:24;;;;;;;;;;;;;;;13.13;88.84;101285.71;106516;1253;76775;-86
2023/12/18 16:46:58;;;;;;;;;;;;;;;13.25;88.06;101285.82;106371;1253;70772;-86
2023/12/18 16:49:32;;;;;;;;;;;;;;;13.32;87.53;101286.76;106505;1254;73725;-86
2023/12/18 16:52:06;;;;;;;;;;;;;;;13.40;86.66;101292.40;106556;1254;61120;-87
2023/12/18 16:54:40;;;;;;;;;;;;;;;13.47;86.26;101291.39;106476;1254;61874;-87
2023/12/18 16:57:14;;;;;;;;;;;;;;;13.40;86.74;101297.89;106428;1253;75358;-87
2023/12/18 16:59:48;;;;;;;;;;;;;;;13.37;87.12;101293.67;106240;1254;70726;-87
2023/12/18 17:02:24;;;;;;;;;;;;;;;13.41;86.95;101295.80;106313;1259;73010;-87
2023/12/18 17:04:57;;;;;;;;;;;;;;;13.29;87.79;101296.85;106229;1254;62015;-87
2023/12/18 17:07:31;;;;;;;;;;;;;;;13.19;88.52;101299.97;106356;1254;61301;-87
2023/12/18 17:10:05;;;;;;;;;;;;;;;12.80;91.56;101305.98;106113;1254;75525;-87
2023/12/18 17:12:39;;;;;;;;;;;;;;;12.89;91.72;101305.53;106329;1253;71471;-87
2023/12/18 17:15:13;;;;;;;;;;;;;;;12.99;90.94;101307.08;106253;1254;74933;-87
2023/12/18 17:17:47;;;;;;;;;;;;;;;12.79;92.56;101308.39;106274;1259;61636;-87
2023/12/18 17:20:21;;;;;;;;;;;;;;;12.86;92.51;101307.56;106467;1253;61330;-88
2023/12/18 17:22:55;;;;;;;;;;;;;;;12.74;93.19;101310.08;106063;1258;76266;-87
2023/12/18 17:25:30;;;;;;;;;;;;;;;12.76;93.31;101314.36;106218;1258;68583;-87
2023/12/18 17:28:04;;;;;;;;;;;;;;;12.80;92.76;101315.30;106073;1260;72981;-88
2023/12/18 17:30:38;;;;;;;;;;;;;;;12.85;92.54;101317.72;106502;1255;62331;-88
2023/12/18 17:33:12;;;;;;;;;;;;;;;12.86;92.66;101319.08;106316;1253;61706;-88
2023/12/18 17:35:46;;;;;;;;;;;;;;;12.86;92.54;101317.71;106411;1255;76656;-88
2023/12/18 17:38:23;;;;;;;;;;;;;;;12.96;91.93;101313.61;106280;1253;70747;-87
2023/12/18 17:40:56;;;;;;;;;;;;;;;12.96;91.83;101311.30;106258;1255;72685;-88
2023/12/18 17:43:24;;;;;;;;;;;;;;;12.98;91.78;101312.12;106334;1253;64275;-87
2023/12/18 17:45:58;;;;;;;;;;;;;;;12.99;91.62;101306.02;106284;1253;61299;-88
2023/12/18 17:48:31;;;;;;;;;;;;;;;12.83;92.83;101308.11;106337;1254;76462;-88
2023/12/18 17:51:06;;;;;;;;;;;;;;;12.87;92.57;101312.73;106532;1253;70889;-88
2023/12/18 17:53:40;;;;;;;;;;;;;;;12.96;92.18;101309.33;106471;1254;74789;-88
2023/12/18 17:56:14;;;;;;;;;;;;;;;13.03;91.73;101312.50;106569;1255;63393;-88
2023/12/18 17:58:49;;;;;;;;;;;;;;;12.98;91.86;101304.71;106645;1256;61315;-87
2023/12/18 18:01:22;;;;;;;;;;;;;;;13.03;91.92;101308.93;106640;1253;75877;-87
2023/12/18 18:03:56;;;;;;;;;;;;;;;13.08;91.29;101308.10;106340;1254;69590;-87
2023/12/18 18:06:30;;;;;;;;;;;;;;;13.12;90.90;101307.18;106489;1255;73306;-88
2023/12/18 18:09:10;;;;;;;;;;;;;;;13.16;90.67;101307.55;106664;1256;61362;-88
2023/12/18 18:11:50;;;;;;;;;;;;;;;13.25;89.94;101306.79;106542;1253;61798;-88
2023/12/18 18:14:29;;;;;;;;;;;;;;;13.19;90.35;101307.99;106708;1255;74593;-88
2023/12/18 18:17:10;;;;;;;;;;;;;;;13.16;90.57;101305.10;106348;1258;72512;-88
2023/12/18 18:19:49;;;;;;;;;;;;;;;13.23;90.11;101299.20;106408;1253;73329;-89
2023/12/18 18:22:29;;;;;;;;;;;;;;;13.31;89.39;101301.75;106796;1253;62556;-87
2023/12/18 18:25:10;;;;;;;;;;;;;;;13.32;89.26;101299.99;106368;1254;61237;-87
2023/12/18 18:27:50;;;;;;;;;;;;;;;13.33;89.17;101297.96;106509;1253;75804;-87
2023/12/18 18:30:24;;;;;;;;;;;;;;;13.41;88.85;101296.70;106324;1253;70575;-86
2023/12/18 18:32:59;;;;;;;;;;;;;;;13.51;87.80;101294.46;106591;1253;73665;-86
2023/12/18 18:35:33;;;;;;;;;;;;;;;13.48;87.72;101297.27;106398;1253;63930;-87
2023/12/18 18:38:07;;;;;;;;;;;;;;;13.28;89.21;101299.16;106623;1253;61420;-87
2023/12/18 18:40:41;;;;;;;;;;;;;;;13.25;89.38;101297.25;106541;1256;74366;-88
2023/12/18 18:43:08;;;;;;;;;;;;;;;13.20;89.99;101300.74;106509;1253;68310;-87
2023/12/18 18:45:48;;;;;;;;;;;;;;;13.18;90.23;101299.93;106419;1252;72629;-87
2023/12/18 18:48:16;;;;;;;;;;;;;;;13.19;90.46;101302.83;106645;1253;61458;-86
2023/12/18 18:50:50;;;;;;;;;;;;;;;13.19;90.31;101299.77;106907;1253;61744;-86
2023/12/18 18:53:27;;;;;;;;;;;;;;;13.17;90.30;101298.89;106623;1253;76460;-86
2023/12/18 18:56:05;;;;;;;;;;;;;;;13.21;90.25;101299.54;106524;1254;70001;-87
2023/12/18 18:58:40;;;;;;;;;;;;;;;13.26;89.75;101301.19;106859;1253;74260;-87
2023/12/18 19:01:14;;;;;;;;;;;;;;;13.29;89.37;101303.79;106625;1256;62376;-87
2023/12/18 19:03:48;;;;;;;;;;;;;;;13.35;88.83;101307.30;106742;1258;61497;-86
2023/12/18 19:06:21;;;;;;;;;;;;;;;13.37;88.77;101304.92;106407;1256;76620;-86
2023/12/18 19:08:55;;;;;;;;;;;;;;;13.28;89.43;101305.64;106428;1254;70615;-87
2023/12/18 19:11:29;;;;;;;;;;;;;;;13.35;89.07;101306.45;106332;1253;72481;-87
2023/12/18 19:14:03;;;;;;;;;;;;;;;13.42;88.47;101306.02;106561;1253;61621;-87
2023/12/18 19:16:37;;;;;;;;;;;;;;;13.32;89.09;101306.64;106613;1253;61261;-86
2023/12/18 19:19:10;;;;;;;;;;;;;;;13.40;88.38;101306.84;106527;1253;75606;-86
2023/12/18 19:21:44;;;;;;;;;;;;;;;13.21;89.56;101311.23;106614;1256;69739;-86
2023/12/18 19:24:18;;;;;;;;;;;;;;;13.04;91.26;101311.57;106654;1256;73893;-86
2023/12/18 19:26:52;;;;;;;;;;;;;;;13.00;91.50;101308.61;106682;1258;61126;-86
2023/12/18 19:29:25;;;;;;;;;;;;;;;13.09;90.94;101308.02;106309;1253;61799;-86
2023/12/18 19:31:59;;;;;;;;;;;;;;;13.18;90.49;101306.30;106392;1252;75768;-86
2023/12/18 19:34:33;;;;;;;;;;;;;;;13.05;91.06;101315.80;106382;1253;71015;-86
2023/12/18 19:37:07;;;;;;;;;;;;;;;13.07;91.36;101314.47;106561;1257;73163;-85
2023/12/18 19:39:41;;;;;;;;;;;;;;;13.10;91.04;101312.34;107008;1253;62790;-86
2023/12/18 19:42:08;;;;;;;;;;;;;;;13.14;90.63;101317.54;106339;1254;61206;-85
2023/12/18 19:44:42;;;;;;;;;;;;;;;13.02;91.68;101319.86;106442;1253;76875;-86
2023/12/18 19:47:16;;;;;;;;;;;;;;;13.04;91.78;101319.92;106541;1258;71265;-86
2023/12/18 19:49:50;;;;;;;;;;;;;;;12.99;92.18;101322.65;106671;1253;74978;-85
2023/12/18 19:52:24;;;;;;;;;;;;;;;13.02;91.95;101325.56;106663;1254;62374;-85
2023/12/18 19:54:58;;;;;;;;;;;;;;;12.97;92.06;101325.73;106595;1253;61674;-86
2023/12/18 19:57:35;;;;;;;;;;;;;;;12.97;92.24;101325.35;106779;1254;74722;-86
2023/12/18 20:00:12;;;;;;;;;;;;;;;12.96;92.47;101324.08;106483;1253;70860;-85
2023/12/18 20:02:46;;;;;;;;;;;;;;;13.00;92.00;101323.75;106530;1256;73558;-85
2023/12/18 20:05:20;;;;;;;;;;;;;;;13.00;92.08;101322.39;106466;1254;64213;-86
2023/12/18 20:07:53;;;;;;;;;;;;;;;13.02;92.06;101322.98;106713;1253;61249;-86
2023/12/18 20:10:27;;;;;;;;;;;;;;;13.04;91.85;101322.59;106562;1254;75669;-87
2023/12/18 20:13:01;;;;;;;;;;;;;;;13.02;92.19;101316.89;106437;1253;69564;-87
2023/12/18 20:15:35;;;;;;;;;;;;;;;13.10;91.55;101321.89;106500;1258;75021;-87
2023/12/18 20:18:10;;;;;;;;;;;;;;;13.05;91.71;101328.69;106807;1253;62164;-86
2023/12/18 20:20:43;;;;;;;;;;;;;;;13.15;91.41;101337.02;106616;1253;225007;-87
2023/12/18 20:23:17;;;;;;;;;;;;;;;13.22;90.60;101335.71;106794;1253;77051;-86
2023/12/18 20:25:51;;;;;;;;;;;;;;;13.17;90.66;101340.70;106506;1254;69915;-87
2023/12/18 20:28:30;;;;;;;;;;;;;;;13.19;90.91;101340.48;106396;1253;75295;-86
2023/12/18 20:31:10;;;;;;;;;;;;;;;13.14;91.14;101342.63;106591;1253;62449;-86
2023/12/18 20:33:50;;;;;;;;;;;;;;;13.11;91.58;101343.83;106555;1255;61333;-85
2023/12/18 20:36:30;;;;;;;;;;;;;;;13.38;89.41;101347.08;106302;1253;74526;-85
2023/12/18 20:39:12;;;;;;;;;;;;;;;13.34;89.46;101348.73;106433;1253;68552;-86
2023/12/18 20:41:51;;;;;;;;;;;;;;;13.31;89.68;101348.08;106966;1256;74448;-85
2023/12/18 20:44:31;;;;;;;;;;;;;;;13.32;89.50;101350.67;106384;1254;61696;-87
2023/12/18 20:47:11;;;;;;;;;;;;;;;13.27;89.88;101354.71;106216;1255;61402;-87
2023/12/18 20:49:51;;;;;;;;;;;;;;;13.23;90.03;101355.36;107427;1253;76260;-87
2023/12/18 20:52:31;;;;;;;;;;;;;;;13.21;90.38;101355.30;106668;1253;70611;-87
2023/12/18 20:55:07;;;;;;;;;;;;;;;13.23;89.98;101345.27;106473;1256;73944;-87
2023/12/18 20:57:47;;;;;;;;;;;;;;;12.98;92.09;101347.13;106491;1254;61393;-87
2023/12/18 21:00:25;;;;;;;;;;;;;;;13.03;92.11;101347.29;106773;1256;61278;-86
2023/12/18 21:03:05;;;;;;;;;;;;;;;13.07;91.70;101348.77;106682;1252;76857;-87
2023/12/18 21:05:39;;;;;;;;;;;;;;;13.02;92.07;101351.09;106497;1254;70693;-85
2023/12/18 21:08:12;;;;;;;;;;;;;;;12.90;93.12;101346.95;106346;1256;72711;-85
2023/12/18 21:10:46;;;;;;;;;;;;;;;12.90;93.36;101344.48;106453;1254;64254;-85
2023/12/18 21:13:21;;;;;;;;;;;;;;;12.87;93.52;101342.61;106878;1255;61355;-85
2023/12/18 21:15:56;;;;;;;;;;;;;;;12.93;93.14;101345.98;106497;1256;76515;-87
2023/12/18 21:18:32;;;;;;;;;;;;;;;12.95;93.01;101348.22;106774;1256;67204;-87
2023/12/18 21:21:07;;;;;;;;;;;;;;;12.93;93.11;101352.44;106485;1256;72997;-86
2023/12/18 21:23:40;;;;;;;;;;;;;;;12.74;94.45;101353.14;106716;1254;61318;-85
2023/12/18 21:26:14;;;;;;;;;;;;;;;12.81;94.24;101349.35;106447;1256;61886;-86
2023/12/18 21:28:49;;;;;;;;;;;;;;;12.86;93.86;101350.18;106374;1253;73732;-85
2023/12/18 21:31:23;;;;;;;;;;;;;;;12.77;94.49;101352.98;106557;1253;71012;-85
2023/12/18 21:33:57;;;;;;;;;;;;;;;12.62;95.77;101358.33;106481;1253;72374;-86
2023/12/18 21:36:30;;;;;;;;;;;;;;;12.67;95.44;101353.51;106452;1254;61625;-86
2023/12/18 21:39:05;;;;;;;;;;;;;;;12.70;95.15;101351.77;106408;1253;61344;-86
2023/12/18 21:41:39;;;;;;;;;;;;;;;12.68;95.25;101355.88;106474;1254;75150;-86
2023/12/18 21:44:07;;;;;;;;;;;;;;;12.67;95.42;101356.96;106725;1253;69151;-85
2023/12/18 21:46:47;;;;;;;;;;;;;;;12.67;95.36;101361.35;106513;1258;72684;-87
2023/12/18 21:49:14;;;;;;;;;;;;;;;12.60;96.05;101358.65;106579;1252;61215;-84
2023/12/18 21:51:54;;;;;;;;;;;;;;;12.69;95.42;101361.09;106461;1252;61228;-86
2023/12/18 21:54:22;;;;;;;;;;;;;;;12.60;95.93;101359.52;106439;1253;74696;-87
2023/12/18 21:57:02;;;;;;;;;;;;;;;12.57;96.25;101364.40;107029;1253;67562;-87
2023/12/18 21:59:29;;;;;;;;;;;;;;;12.34;97.90;101368.39;107201;1254;72671;-86
2023/12/18 22:02:10;;;;;;;;;;;;;;;12.40;98.06;101373.29;106225;1258;61396;-86
2023/12/18 22:04:37;;;;;;;;;;;;;;;12.54;97.11;101376.67;106445;1252;61306;-85
2023/12/18 22:07:17;;;;;;;;;;;;;;;12.58;96.71;101377.88;106444;1253;73707;-86
2023/12/18 22:09:45;;;;;;;;;;;;;;;12.44;97.82;101377.08;106145;1257;68406;-86
2023/12/18 22:12:25;;;;;;;;;;;;;;;12.38;98.45;101376.46;106313;1253;72672;-86
2023/12/18 22:14:52;;;;;;;;;;;;;;;12.31;98.98;101377.10;106089;1254;62726;-86
2023/12/18 22:17:32;;;;;;;;;;;;;;;12.34;99.22;101372.73;106214;1253;61340;-86
2023/12/18 22:20:00;;;;;;;;;;;;;;;12.47;98.45;101372.55;106206;1254;73433;-86
2023/12/18 22:22:40;;;;;;;;;;;;;;;12.42;98.45;101374.98;106167;1256;68684;-85
2023/12/18 22:25:14;;;;;;;;;;;;;;;12.37;99.06;101373.66;106192;1259;72415;-86
2023/12/18 22:27:54;;;;;;;;;;;;;;;12.33;99.25;101373.31;106171;1255;61225;-86
2023/12/18 22:30:33;;;;;;;;;;;;;;;12.45;98.83;101375.61;106140;1253;61260;-85
2023/12/18 22:33:13;;;;;;;;;;;;;;;12.52;98.10;101380.13;106241;1258;76706;-86
2023/12/18 22:35:54;;;;;;;;;;;;;;;12.56;97.72;101379.59;106149;1259;68861;-86
2023/12/18 22:38:33;;;;;;;;;;;;;;;12.64;96.99;101384.65;106221;1256;72426;-86
2023/12/18 22:41:13;;;;;;;;;;;;;;;12.61;97.16;101390.08;106304;1253;61285;-85
2023/12/18 22:43:52;;;;;;;;;;;;;;;12.60;97.02;101386.61;106215;1253;61309;-86
2023/12/18 22:46:32;;;;;;;;;;;;;;;12.60;97.05;101387.98;106269;1253;72419;-86
2023/12/18 22:49:06;;;;;;;;;;;;;;;12.59;97.28;101380.96;106104;1253;66874;-86
2023/12/18 22:51:42;;;;;;;;;;;;;;;12.44;98.15;101375.49;106319;1258;73156;-85
2023/12/18 22:54:16;;;;;;;;;;;;;;;12.25;99.75;101377.73;106219;1253;60016;-85
2023/12/18 22:56:50;;;;;;;;;;;;;;;12.21;100.00;101378.69;106371;1253;61284;-86
2023/12/18 22:59:23;;;;;;;;;;;;;;;12.27;99.95;101376.70;106067;1258;74639;-85
2023/12/18 23:01:57;;;;;;;;;;;;;;;12.28;99.85;101376.69;106144;1256;68686;-86
2023/12/18 23:04:31;;;;;;;;;;;;;;;12.27;100.00;101374.33;106241;1258;72722;-86
2023/12/18 23:07:05;;;;;;;;;;;;;;;12.27;99.90;101378.55;106235;1253;61684;-85
2023/12/18 23:09:39;;;;;;;;;;;;;;;12.31;99.76;101374.84;105963;1253;61395;-86
2023/12/18 23:12:13;;;;;;;;;;;;;;;12.25;99.88;101368.35;106225;1254;74663;-86
2023/12/18 23:14:46;;;;;;;;;;;;;;;12.10;100.00;101367.46;106239;1254;68451;-86
2023/12/18 23:17:20;;;;;;;;;;;;;;;12.05;100.00;101365.64;106540;1256;71498;-86
2023/12/18 23:19:54;;;;;;;;;;;;;;;11.98;100.00;101359.36;106270;1255;61350;-86
2023/12/18 23:22:28;;;;;;;;;;;;;;;11.97;100.00;101360.17;106232;1255;59452;-85
2023/12/18 23:25:03;;;;;;;;;;;;;;;12.22;100.00;101358.03;106102;1253;72263;-85
2023/12/18 23:27:36;;;;;;;;;;;;;;;12.17;100.00;101360.31;106175;1253;68725;-85
2023/12/18 23:30:10;;;;;;;;;;;;;;;12.21;100.00;101361.10;106139;1254;72865;-85
2023/12/18 23:32:44;;;;;;;;;;;;;;;12.16;100.00;101363.71;106215;1254;61680;-86
2023/12/18 23:35:18;;;;;;;;;;;;;;;12.17;100.00;101372.59;106059;1256;61157;-86
2023/12/18 23:37:52;;;;;;;;;;;;;;;12.12;100.00;101376.57;106282;1256;74638;-86
2023/12/18 23:40:32;;;;;;;;;;;;;;;12.24;100.00;101376.73;106435;1253;67402;-86
2023/12/18 23:43:00;;;;;;;;;;;;;;;12.44;99.62;101376.70;106170;1256;72411;-85
2023/12/18 23:45:34;;;;;;;;;;;;;;;12.45;99.11;101373.52;106219;1258;61342;-86
2023/12/18 23:48:08;;;;;;;;;;;;;;;12.40;99.41;101375.70;106140;1254;61501;-85
2023/12/18 23:50:49;;;;;;;;;;;;;;;12.42;99.36;101376.95;106484;1256;74659;-86
2023/12/18 23:53:23;;;;;;;;;;;;;;;12.49;98.87;101372.21;106120;1260;67315;-86
2023/12/18 23:56:05;;;;;;;;;;;;;;;12.55;98.37;101372.55;106158;1258;72408;-85
2023/12/18 23:58:45;;;;;;;;;;;;;;;12.53;98.06;101366.46;106247;1253;61282;-85
